Time;durP1;ratioP1;P1;durP2;ratioP2;P2;SDS_P1;SDS_P2;PMS_P1;PMS_P2;Temp;Humidity;BMP_temperature;BMP_pressure;BME280_temperature;BME280_humidity;BME280_pressure;Samples;Min_cycle;Max_cycle;Signal;HPM_P1;HPM_P2
2022/02/02 00:04:31;;;;;;;5.95;4.13;;;;;;;-1.25;67.95;97408.94;4992563;28;20060;-60
2022/02/02 00:09:32;;;;;;;9.07;4.63;;;;;;;-1.27;68.12;97412.75;5008652;28;20050;-60
2022/02/02 00:14:41;;;;;;;6.97;4.38;;;;;;;-1.11;67.96;97414.84;4991876;28;20038;-60
2022/02/02 00:22:25;;;;;;;7.32;4.55;;;;;;;-1.19;68.12;97417.72;4991704;28;20050;-60
2022/02/02 00:27:12;;;;;;;9.77;4.20;;;;;;;-1.28;68.50;97426.75;4990671;28;20081;-60
2022/02/02 00:29:47;;;;;;;7.85;4.53;;;;;;;-1.27;68.12;97423.94;4992120;28;20518;-60
2022/02/02 00:34:45;;;;;;;6.47;4.05;;;;;;;-1.12;67.99;97428.06;4991957;28;20046;-59
2022/02/02 00:37:11;;;;;;;7.70;4.20;;;;;;;-1.07;67.98;97429.03;4991812;28;20658;-59
2022/02/02 00:39:37;;;;;;;6.78;4.32;;;;;;;-1.13;68.40;97436.88;4990969;28;20050;-60
2022/02/02 00:42:03;;;;;;;7.50;4.40;;;;;;;-1.17;68.51;97436.50;4991873;28;20396;-59
2022/02/02 00:44:30;;;;;;;7.40;4.15;;;;;;;-1.12;68.18;97430.66;4974493;28;20046;-58
2022/02/02 00:46:56;;;;;;;8.82;4.55;;;;;;;-1.20;67.95;97429.91;4987027;28;20049;-60
2022/02/02 00:49:23;;;;;;;8.27;4.50;;;;;;;-1.18;68.39;97425.31;4972195;28;20051;-60
2022/02/02 00:51:50;;;;;;;5.70;3.92;;;;;;;-1.20;68.17;97422.13;4994937;28;20050;-59
2022/02/02 00:54:18;;;;;;;9.02;5.00;;;;;;;-1.23;67.92;97437.34;4992193;28;20459;-58
2022/02/02 00:56:44;;;;;;;7.45;4.70;;;;;;;-1.19;67.80;97434.09;4991501;28;20137;-61
2022/02/02 00:59:10;;;;;;;7.43;4.80;;;;;;;-1.27;67.63;97436.16;4990759;28;20130;-59
2022/02/02 01:01:37;;;;;;;6.65;4.07;;;;;;;-1.31;67.47;97434.97;4991815;28;20037;-60
2022/02/02 01:04:03;;;;;;;7.03;4.30;;;;;;;-1.35;68.26;97442.41;4991722;28;20065;-58
2022/02/02 01:06:33;;;;;;;6.47;4.43;;;;;;;-1.41;67.82;97446.63;4987401;28;20038;-61
2022/02/02 01:27:45;;;;;;;6.40;4.35;;;;;;;-1.50;68.18;97447.88;4990380;28;20046;-60
2022/02/02 01:27:52;;;;;;;9.27;4.57;;;;;;;-1.58;68.17;97444.72;4990844;28;20057;-60
2022/02/02 01:30:18;;;;;;;7.40;4.63;;;;;;;-1.54;68.42;97451.09;4995116;28;20050;-61
2022/02/02 01:32:44;;;;;;;7.45;4.45;;;;;;;-1.56;68.22;97447.88;4994955;28;20050;-60
2022/02/02 01:35:15;;;;;;;8.52;4.97;;;;;;;-1.54;68.10;97453.69;4994940;28;20102;-60
2022/02/02 01:37:42;;;;;;;8.73;5.20;;;;;;;-1.45;68.12;97461.03;4994810;28;20133;-60
2022/02/02 01:40:17;;;;;;;8.55;4.57;;;;;;;-1.39;67.10;97460.19;4995142;28;20129;-61
2022/02/02 01:42:50;;;;;;;10.15;5.18;;;;;;;-1.42;68.15;97462.41;4994885;28;20073;-60
2022/02/02 01:45:22;;;;;;;9.27;4.75;;;;;;;-1.56;67.65;97453.09;4994829;28;20113;-59
2022/02/02 01:48:04;;;;;;;8.27;5.13;;;;;;;-1.64;68.11;97457.53;4994792;28;20046;-59
2022/02/02 01:50:50;;;;;;;9.20;4.93;;;;;;;-1.65;68.16;97452.53;4994505;28;20043;-60
2022/02/02 01:53:31;;;;;;;8.57;5.20;;;;;;;-1.67;68.25;97459.75;4994751;28;20042;-61
2022/02/02 01:55:58;;;;;;;10.23;4.78;;;;;;;-1.62;68.62;97454.72;4994578;28;20046;-58
2022/02/02 02:00:50;;;;;;;8.73;4.72;;;;;;;-1.56;67.51;97447.88;4994770;28;20045;-62
2022/02/02 02:03:15;;;;;;;8.68;4.80;;;;;;;-1.57;67.49;97461.91;5009359;28;20419;-60
2022/02/02 02:05:41;;;;;;;10.57;4.97;;;;;;;-1.52;66.70;97460.28;4994721;28;20042;-60
2022/02/02 02:08:07;;;;;;;9.15;4.97;;;;;;;-1.56;66.34;97461.69;4993096;28;20518;-59
2022/02/02 02:10:33;;;;;;;7.95;4.70;;;;;;;-1.61;66.53;97461.53;4994350;28;20149;-60
2022/02/02 02:13:06;;;;;;;8.00;4.63;;;;;;;-1.61;65.73;97464.13;4994353;28;20137;-60
2022/02/02 02:15:33;;;;;;;8.60;4.30;;;;;;;-1.70;65.88;97460.16;4994411;28;20046;-59
2022/02/02 02:17:59;;;;;;;7.45;4.88;;;;;;;-1.75;65.71;97462.56;4989538;28;20046;-59
2022/02/02 02:20:26;;;;;;;7.80;4.50;;;;;;;-1.79;66.11;97451.81;4973565;28;20051;-60
2022/02/02 02:22:51;;;;;;;8.70;4.88;;;;;;;-1.77;65.99;97460.16;5004157;28;20594;-58
2022/02/02 02:25:25;;;;;;;7.60;4.93;;;;;;;-1.79;66.39;97459.59;4993123;28;20173;-59
2022/02/02 02:27:52;;;;;;;8.75;4.60;;;;;;;-1.88;66.26;97455.63;4993039;28;20046;-60
2022/02/02 02:30:27;;;;;;;7.80;4.35;;;;;;;-1.88;66.33;97464.22;4992991;28;20174;-60
2022/02/02 02:57:23;;;;;;;8.38;4.03;;;;;;;-1.93;66.30;97489.19;4992554;28;20476;-59
2022/02/02 03:30:10;;;;;;;7.15;4.45;;;;;;;-2.22;65.27;97522.38;4992453;28;20496;-59
2022/02/02 03:52:11;;;;;;;8.52;4.95;;;;;;;-2.39;63.77;97531.56;4992229;28;20078;-59
2022/02/02 04:05:39;;;;;;;8.65;4.90;;;;;;;-2.49;65.04;97549.34;4992615;28;20041;-59
2022/02/02 04:08:23;;;;;;;8.88;4.93;;;;;;;-2.55;65.74;97553.53;4991978;28;20159;-60
2022/02/02 04:10:53;;;;;;;9.13;4.80;;;;;;;-2.66;65.72;97544.53;4992497;28;20042;-60
2022/02/02 04:59:12;;;;;;;6.40;3.97;;;;;;;-2.92;65.70;97584.16;4995693;28;20042;-60
2022/02/02 05:17:52;;;;;;;11.38;4.75;;;;;;;-2.95;67.21;97599.31;4995114;28;20054;-62
2022/02/02 05:52:56;;;;;;;9.10;4.15;;;;;;;-2.82;66.76;97646.84;4990283;28;20046;-61
2022/02/02 05:55:22;;;;;;;9.05;4.85;;;;;;;-2.82;66.67;97646.84;5007646;28;20054;-64
2022/02/02 05:57:49;;;;;;;6.55;4.32;;;;;;;-2.84;66.97;97648.81;4989908;28;20047;-59
2022/02/02 06:00:16;;;;;;;8.10;4.40;;;;;;;-2.80;67.05;97644.03;4989016;28;20180;-59
2022/02/02 06:02:47;;;;;;;10.23;5.38;;;;;;;-2.70;67.24;97643.69;4988369;28;20049;-61
2022/02/02 06:05:13;;;;;;;7.57;4.20;;;;;;;-2.75;67.46;97642.47;4952501;28;20067;-60
2022/02/02 06:07:42;;;;;;;8.43;4.47;;;;;;;-2.76;67.62;97651.25;4984922;28;20524;-60
2022/02/02 06:10:13;;;;;;;11.43;5.70;;;;;;;-2.65;68.16;97646.47;4970666;28;20054;-62
2022/02/02 06:12:41;;;;;;;8.68;4.47;;;;;;;-2.88;68.00;97647.63;4990439;28;20038;-61
2022/02/02 06:15:11;;;;;;;7.78;4.55;;;;;;;-2.84;68.17;97648.03;4990401;28;20046;-60
2022/02/02 06:17:39;;;;;;;7.82;4.35;;;;;;;-2.78;67.25;97649.84;4988718;28;20534;-60
2022/02/02 06:20:06;;;;;;;7.72;4.65;;;;;;;-2.66;67.21;97650.88;4985913;28;20389;-59
2022/02/02 06:22:33;;;;;;;9.80;4.90;;;;;;;-2.45;67.08;97652.53;4988227;28;20052;-60
2022/02/02 06:25:21;;;;;;;9.18;5.63;;;;;;;-2.46;67.26;97650.94;4987856;28;20042;-61
2022/02/02 06:27:55;;;;;;;11.93;5.25;;;;;;;-2.47;67.05;97657.13;5004819;28;20050;-61
2022/02/02 06:30:21;;;;;;;10.55;5.70;;;;;;;-2.43;67.02;97652.34;4986286;28;20109;-61
2022/02/02 06:32:52;;;;;;;10.18;5.20;;;;;;;-2.38;67.31;97660.31;4988348;28;20042;-62
2022/02/02 06:35:20;;;;;;;8.57;4.55;;;;;;;-2.38;67.08;97662.91;4983989;28;20503;-61
2022/02/02 06:37:48;;;;;;;8.77;4.70;;;;;;;-2.63;67.59;97639.31;4987996;28;20042;-58
2022/02/02 06:40:15;;;;;;;6.93;4.65;;;;;;;-2.53;67.53;97668.25;4999052;28;20046;-60
2022/02/02 06:42:42;;;;;;;8.93;4.95;;;;;;;-2.41;67.94;97671.09;4967492;28;20412;-60
2022/02/02 06:45:10;;;;;;;10.55;5.10;;;;;;;-2.37;67.71;97682.69;5001126;28;20464;-63
2022/02/02 06:47:37;;;;;;;10.27;5.57;;;;;;;-2.30;67.73;97684.28;4968992;28;20039;-62
2022/02/02 06:50:22;;;;;;;12.50;6.05;;;;;;;-2.24;66.78;97681.91;5000829;28;20065;-63
2022/02/02 06:53:29;;;;;;;11.93;5.82;;;;;;;-2.13;66.19;97687.31;5001703;28;20057;-62
2022/02/02 06:59:15;;;;;;;10.48;5.40;;;;;;;-1.95;66.79;97689.34;4990204;28;20046;-60
2022/02/02 07:15:30;;;;;;;13.30;6.82;;;;;;;-1.90;66.78;97699.13;4986854;28;20488;-61
2022/02/02 07:28:16;;;;;;;10.55;5.75;;;;;;;-1.65;66.15;97725.31;4990908;28;20054;-61
2022/02/02 07:31:00;;;;;;;9.77;5.65;;;;;;;-1.70;65.33;97717.34;4988009;28;20464;-59
2022/02/02 07:33:34;;;;;;;13.20;5.55;;;;;;;-1.64;65.01;97725.13;5006995;28;20476;-59
2022/02/02 07:36:08;;;;;;;9.90;5.90;;;;;;;-1.60;64.96;97728.91;4988736;28;20050;-60
2022/02/02 07:39:04;;;;;;;10.73;5.28;;;;;;;-1.47;64.59;97730.72;4991232;28;20035;-61
2022/02/02 07:41:36;;;;;;;9.20;4.78;;;;;;;-1.46;64.49;97727.13;4987404;28;20247;-61
2022/02/02 07:44:20;;;;;;;10.95;5.03;;;;;;;-1.41;63.75;97739.53;4988176;28;20045;-60
2022/02/02 07:46:48;;;;;;;8.48;4.90;;;;;;;-1.34;63.28;97737.72;4990659;28;20054;-61
2022/02/02 07:49:18;;;;;;;8.82;4.82;;;;;;;-1.32;63.28;97740.09;4988343;28;20042;-60
2022/02/02 07:51:50;;;;;;;8.43;4.87;;;;;;;-1.16;62.84;97748.28;4986552;28;20042;-60
2022/02/02 07:54:21;;;;;;;8.05;5.05;;;;;;;-1.07;63.14;97758.47;4987635;28;20329;-60
2022/02/02 07:56:48;;;;;;;9.07;5.13;;;;;;;-1.17;62.50;97761.50;4987233;28;20054;-62
2022/02/02 08:02:08;;;;;;;9.77;5.05;;;;;;;-1.03;62.94;97783.88;4987276;28;20097;-61
2022/02/02 08:04:35;;;;;;;11.80;5.03;;;;;;;-1.13;62.03;97770.47;4984754;28;20055;-59
2022/02/02 08:07:01;;;;;;;7.82;4.63;;;;;;;-1.13;62.14;97770.47;4968612;28;20222;-60
2022/02/02 08:11:57;;;;;;;9.02;5.07;;;;;;;-1.03;62.03;97775.25;4979665;28;20145;-62
2022/02/02 08:14:24;;;;;;;8.98;4.70;;;;;;;-0.99;61.40;97776.47;4979098;28;20050;-62
2022/02/02 08:16:50;;;;;;;6.65;4.30;;;;;;;-1.11;61.85;97778.09;4988840;28;20046;-61
2022/02/02 08:19:17;;;;;;;7.68;4.53;;;;;;;-0.95;61.87;97783.66;4983169;28;20047;-64
2022/02/02 08:21:44;;;;;;;9.15;4.38;;;;;;;-0.94;62.65;97784.47;4966457;28;20091;-63
2022/02/02 08:24:11;;;;;;;7.45;4.10;;;;;;;-0.87;61.32;97785.25;4979799;28;20504;-60
2022/02/02 08:26:37;;;;;;;8.05;4.70;;;;;;;-0.58;61.10;97773.56;4986618;28;20125;-61
2022/02/02 08:29:03;;;;;;;7.07;3.95;;;;;;;-0.50;60.97;97781.16;4970045;28;20046;-62
2022/02/02 08:31:29;;;;;;;8.35;4.47;;;;;;;-0.83;61.32;97783.84;4986635;28;20053;-63
2022/02/02 08:34:01;;;;;;;7.30;4.40;;;;;;;-0.59;61.46;97785.00;4982896;28;20129;-60
2022/02/02 08:36:28;;;;;;;9.10;4.47;;;;;;;-0.42;60.38;97790.53;4967715;28;20077;-62
2022/02/02 08:39:09;;;;;;;6.55;4.40;;;;;;;-0.53;60.88;97786.78;4984661;28;20066;-60
2022/02/02 08:41:40;;;;;;;9.13;4.63;;;;;;;-0.64;61.15;97791.81;4982630;28;20472;-63
2022/02/02 08:44:14;;;;;;;7.30;3.72;;;;;;;-0.48;60.54;97794.75;4981947;28;20040;-60
2022/02/02 08:46:47;;;;;;;7.25;4.10;;;;;;;-0.39;59.98;97808.34;5000061;28;20051;-61
2022/02/02 08:49:14;;;;;;;6.95;4.20;;;;;;;-0.34;60.23;97808.53;4989457;28;20413;-61
2022/02/02 08:51:44;;;;;;;7.07;4.22;;;;;;;-0.32;59.65;97808.34;5002854;28;20039;-60
2022/02/02 09:02:06;;;;;;;6.25;3.63;;;;;;;-0.45;60.03;97803.97;5005077;28;20130;-62
2022/02/02 09:07:16;;;;;;;4.78;3.40;;;;;;;-0.59;60.50;97810.19;5015425;28;20481;-60
2022/02/02 09:23:27;;;;;;;7.35;4.18;;;;;;;-0.32;59.36;97811.75;4972052;28;20054;-62
2022/02/02 09:34:01;;;;;;;5.15;3.65;;;;;;;-0.25;59.44;97828.13;4991878;28;20116;-61
2022/02/02 09:36:30;;;;;;;6.95;4.10;;;;;;;-0.15;58.97;97825.06;4988929;28;20081;-60
2022/02/02 09:38:59;;;;;;;6.53;3.30;;;;;;;-0.11;58.86;97823.66;4990088;28;20077;-61
2022/02/02 09:44:00;;;;;;;6.30;3.72;;;;;;;-0.26;57.84;97836.94;5005148;28;20049;-63
2022/02/02 09:46:33;;;;;;;6.85;3.30;;;;;;;-0.31;58.44;97834.16;5006653;28;20474;-62
2022/02/02 09:49:06;;;;;;;6.93;3.83;;;;;;;-0.15;58.41;97832.88;4990995;28;20492;-61
2022/02/02 09:51:47;;;;;;;4.93;3.30;;;;;;;-0.10;57.75;97842.69;4991703;28;20049;-61
2022/02/02 09:54:22;;;;;;;5.75;3.60;;;;;;;-0.25;58.34;97828.13;4992592;28;20050;-60
2022/02/02 10:15:28;;;;;;;6.80;4.05;;;;;;;0.64;56.93;97839.47;4991359;28;20046;-62
2022/02/02 10:17:59;;;;;;;5.03;3.28;;;;;;;0.66;56.71;97836.69;4987869;28;20149;-61
2022/02/02 10:20:27;;;;;;;5.47;3.58;;;;;;;0.53;56.73;97840.19;4991448;28;20121;-62
2022/02/02 10:22:59;;;;;;;7.05;4.53;;;;;;;0.47;56.60;97829.78;4983215;28;20452;-59
2022/02/02 10:25:29;;;;;;;7.53;4.18;;;;;;;0.42;56.20;97844.25;4988083;28;20046;-60
2022/02/02 10:28:10;;;;;;;6.83;4.30;;;;;;;0.10;56.83;97840.00;4989910;28;20050;-60
2022/02/02 10:30:36;;;;;;;6.28;3.78;;;;;;;0.14;57.32;97841.19;4989946;28;20084;-60
2022/02/02 10:33:05;;;;;;;4.72;3.95;;;;;;;0.13;57.35;97850.03;4990907;28;20046;-59
2022/02/02 10:35:39;;;;;;;5.22;3.60;;;;;;;0.27;57.22;97848.94;4989186;28;20046;-63
2022/02/02 10:38:11;;;;;;;6.10;3.70;;;;;;;0.30;57.95;97848.53;4970095;28;20092;-61
2022/02/02 10:41:01;;;;;;;7.95;4.13;;;;;;;0.58;57.15;97857.78;4970357;28;20043;-60
2022/02/02 10:44:16;;;;;;;8.57;4.30;;;;;;;0.70;56.58;97847.47;4987544;28;20089;-61
2022/02/02 10:46:53;;;;;;;7.07;4.13;;;;;;;0.61;57.00;97852.94;4973079;28;20120;-59
2022/02/02 10:49:20;;;;;;;8.02;3.85;;;;;;;0.51;58.04;97842.19;4991055;28;20524;-60
2022/02/02 10:51:59;;;;;;;5.65;4.15;;;;;;;0.28;57.25;97852.34;4988531;28;20571;-60
2022/02/02 10:57:13;;;;;;;5.18;3.67;;;;;;;0.50;56.57;97843.22;4989219;28;20073;-60
2022/02/02 11:07:41;;;;;;;6.25;3.63;;;;;;;0.47;56.25;97840.19;5005945;28;20490;-59
2022/02/02 11:10:07;;;;;;;6.90;3.88;;;;;;;0.46;56.18;97847.22;4989333;28;20085;-62
2022/02/02 11:12:38;;;;;;;5.45;3.42;;;;;;;0.50;55.73;97845.00;4988253;28;20042;-61
2022/02/02 11:15:25;;;;;;;7.07;3.80;;;;;;;0.49;56.24;97854.63;4986403;28;20073;-59
2022/02/02 11:18:12;;;;;;;4.75;3.72;;;;;;;0.43;55.58;97852.88;4987621;28;20137;-61
2022/02/02 11:20:38;;;;;;;6.95;4.28;;;;;;;0.34;56.06;97865.34;5020053;28;20050;-59
2022/02/02 11:23:06;;;;;;;5.13;3.33;;;;;;;0.49;56.63;97862.44;4987981;28;20426;-61
2022/02/02 11:25:37;;;;;;;5.68;3.35;;;;;;;0.63;56.18;97855.34;4988332;28;20512;-60
2022/02/02 11:28:05;;;;;;;4.70;3.50;;;;;;;0.53;55.78;97865.44;4988758;28;20543;-59
2022/02/02 11:30:32;;;;;;;7.85;4.00;;;;;;;0.43;56.82;97864.09;4988579;28;20073;-60
2022/02/02 11:33:21;;;;;;;6.13;3.83;;;;;;;0.43;56.16;97855.47;5004591;28;20089;-59
2022/02/02 11:35:49;;;;;;;5.20;3.47;;;;;;;0.41;56.00;97862.69;5020513;28;20081;-60
2022/02/02 11:38:29;;;;;;;5.35;3.58;;;;;;;0.62;55.89;97872.81;4989779;28;20488;-57
2022/02/02 11:41:11;;;;;;;5.35;3.42;;;;;;;0.84;55.81;97872.47;5004300;28;20459;-60
2022/02/02 11:43:46;;;;;;;6.78;3.70;;;;;;;0.67;55.49;97880.00;4988197;28;20057;-58
2022/02/02 11:46:38;;;;;;;5.82;3.35;;;;;;;0.82;55.65;97884.91;5004013;28;20078;-62
2022/02/02 11:49:14;;;;;;;6.57;3.53;;;;;;;0.88;54.88;97892.72;4987329;28;20133;-62
2022/02/02 11:52:06;;;;;;;6.60;2.85;;;;;;;0.76;55.05;97885.75;5001417;28;20504;-62
2022/02/02 11:54:32;;;;;;;4.88;3.55;;;;;;;0.64;56.11;97893.44;4987869;28;20054;-60
2022/02/02 11:57:02;;;;;;;6.03;3.17;;;;;;;0.69;55.55;97896.25;4988221;28;20049;-60
2022/02/02 11:59:40;;;;;;;7.30;3.35;;;;;;;0.52;55.93;97895.13;4987995;28;20054;-61
2022/02/02 12:02:19;;;;;;;9.27;3.78;;;;;;;0.48;56.03;97893.97;4987480;28;20328;-59
2022/02/02 12:08:06;;;;;;;5.18;3.35;;;;;;;0.46;56.28;97899.38;4988384;28;20038;-61
2022/02/02 12:11:44;;;;;;;5.35;3.25;;;;;;;0.53;55.87;97901.94;4989020;28;20134;-60
2022/02/02 12:57:48;;;;;;;6.78;4.22;;;;;;;-0.30;59.54;97932.09;4972060;28;20559;-60
2022/02/02 13:03:08;;;;;;;8.48;3.85;;;;;;;-0.33;59.02;97927.28;4987998;28;20432;-61
2022/02/02 13:05:36;;;;;;;9.18;4.43;;;;;;;-0.29;59.38;97938.91;4991965;28;20074;-62
2022/02/02 13:08:03;;;;;;;7.47;3.72;;;;;;;-0.17;59.02;97933.88;4990921;28;20417;-59
2022/02/02 13:10:32;;;;;;;6.57;4.22;;;;;;;-0.18;59.02;97941.88;4989988;28;20054;-60
2022/02/02 13:13:16;;;;;;;8.25;3.95;;;;;;;-0.05;58.08;97940.06;4989948;28;20053;-61
2022/02/02 13:18:32;;;;;;;7.18;4.05;;;;;;;-0.18;58.95;97944.50;5022917;28;20542;-61
2022/02/02 13:26:42;;;;;;;11.63;5.18;;;;;;;-0.23;59.06;97955.53;4990162;28;20069;-61
2022/02/02 13:31:50;;;;;;;9.20;4.90;;;;;;;-0.38;60.67;97960.97;4991368;28;20070;-58
2022/02/02 13:45:23;;;;;;;7.32;4.28;;;;;;;-0.44;60.63;97973.97;4993582;28;20066;-58
2022/02/02 13:48:05;;;;;;;8.73;4.25;;;;;;;-0.56;60.81;97978.97;4989589;28;20035;-60
2022/02/02 13:50:57;;;;;;;8.25;4.65;;;;;;;-0.70;61.12;97973.78;4990764;28;20050;-61
2022/02/02 14:11:46;;;;;;;6.40;4.07;;;;;;;-0.69;60.33;98011.00;4989738;28;20050;-58
2022/02/02 14:33:28;;;;;;;7.20;3.83;;;;;;;-0.84;59.75;98031.19;4988659;28;20440;-59
2022/02/02 14:35:58;;;;;;;8.38;4.20;;;;;;;-0.84;60.73;98039.00;4989674;28;20050;-61
2022/02/02 14:38:25;;;;;;;7.00;4.32;;;;;;;-1.00;60.98;98046.19;5006010;28;20035;-56
2022/02/02 14:43:29;;;;;;;6.70;4.40;;;;;;;-1.08;61.23;98054.16;5021482;28;20045;-59
2022/02/02 14:45:56;;;;;;;7.15;4.90;;;;;;;-1.06;61.67;98056.53;4989594;28;20047;-60
2022/02/02 14:48:28;;;;;;;10.18;5.05;;;;;;;-1.01;61.76;98056.75;4987212;28;20136;-60
2022/02/02 14:51:09;;;;;;;10.10;5.30;;;;;;;-1.10;61.71;98052.75;4989326;28;20420;-60
2022/02/02 14:53:48;;;;;;;7.00;4.78;;;;;;;-1.15;61.50;98055.91;4989762;28;20042;-61
2022/02/02 15:26:12;;;;;;;8.90;4.90;;;;;;;-0.79;61.99;98071.25;4989087;28;20220;-60
2022/02/02 15:28:19;;;;;;;9.30;4.90;;;;;;;-0.69;61.46;98086.47;4986601;28;20042;-58
2022/02/02 15:33:17;;;;;;;9.77;5.13;;;;;;;-0.88;61.72;98095.00;4986801;28;20039;-59
2022/02/02 15:35:43;;;;;;;9.77;5.75;;;;;;;-0.90;62.02;98099.63;4988489;28;20511;-58
2022/02/02 15:38:24;;;;;;;15.13;6.40;;;;;;;-1.01;62.24;98103.59;4990375;28;20122;-59
2022/02/02 15:40:59;;;;;;;;;;;;;;;-0.95;62.69;98095.78;4989603;28;20424;-61
2022/02/02 16:04:58;;;;;;;11.63;5.90;;;;;;;-1.24;62.09;98119.47;4986889;28;20066;-61
2022/02/02 16:07:28;;;;;;;12.65;6.82;;;;;;;-1.25;62.64;98123.09;4997684;28;20467;-59
2022/02/02 16:09:58;;;;;;;11.20;6.20;;;;;;;-1.37;62.30;98118.41;4982153;28;20051;-61
2022/02/02 16:12:39;;;;;;;13.50;6.43;;;;;;;-1.28;62.70;98116.47;4969429;28;20042;-62
2022/02/02 16:18:08;;;;;;;15.55;6.57;;;;;;;-1.10;62.16;98133.34;4969291;28;20047;-63
2022/02/02 16:37:00;;;;;;;11.05;6.20;;;;;;;-1.21;62.69;98124.28;4975696;28;20051;-63
2022/02/02 16:39:26;;;;;;;11.85;6.63;;;;;;;-1.13;62.55;98136.34;4988514;28;20049;-62
2022/02/02 16:44:36;;;;;;;12.68;6.50;;;;;;;-1.23;62.26;98147.91;4988563;28;20046;-63
2022/02/02 16:47:03;;;;;;;16.48;6.57;;;;;;;-1.12;62.91;98148.34;5007105;28;20042;-61
2022/02/02 16:49:29;;;;;;;14.38;6.00;;;;;;;-1.17;62.11;98141.13;4990068;28;20054;-63
2022/02/02 16:51:55;;;;;;;13.10;6.15;;;;;;;-1.15;62.55;98147.75;4975376;28;20065;-62
2022/02/02 16:54:28;;;;;;;14.10;6.32;;;;;;;-1.07;61.81;98145.97;4985014;28;20514;-61
2022/02/02 17:24:29;;;;;;;13.10;6.38;;;;;;;-0.97;61.54;98155.03;4992103;28;20058;-60
2022/02/02 17:30:08;;;;;;;10.95;6.55;;;;;;;-0.80;60.87;98163.28;4990811;28;20047;-60
2022/02/02 17:32:44;;;;;;;12.55;6.20;;;;;;;-0.86;60.68;98171.88;4966051;28;20049;-60
2022/02/02 17:35:39;;;;;;;18.92;9.80;;;;;;;-0.87;61.48;98170.28;4980555;28;20074;-60
2022/02/02 18:12:32;;;;;;;15.35;6.97;;;;;;;-0.92;62.50;98175.25;4977961;28;20042;-60
2022/02/02 18:20:46;;;;;;;13.52;6.03;;;;;;;-0.86;63.02;98164.06;4981762;28;20037;-63
2022/02/02 18:30:45;;;;;;;14.45;5.97;;;;;;;-0.99;63.12;98184.84;4980292;28;20125;-63
2022/02/02 18:35:55;;;;;;;16.55;8.82;;;;;;;-0.95;62.89;98191.25;4985874;28;20042;-62
2022/02/02 18:52:36;;;;;;;13.13;6.05;;;;;;;-1.10;62.71;98178.38;4984194;28;20419;-61
2022/02/02 18:57:38;;;;;;;14.05;6.07;;;;;;;-1.15;63.37;98181.56;4983692;28;20054;-62
2022/02/02 19:06:23;;;;;;;9.50;5.13;;;;;;;-1.35;63.62;98183.22;4981374;28;20042;-60
2022/02/02 19:55:57;;;;;;;11.98;6.57;;;;;;;-1.49;64.96;98225.72;5018679;28;20049;-61
2022/02/02 20:06:57;;;;;;;11.43;5.78;;;;;;;-1.55;65.33;98231.66;4991698;28;20038;-60
2022/02/02 20:12:06;;;;;;;13.02;6.85;;;;;;;-1.36;64.71;98236.19;4991293;28;20121;-56
2022/02/02 20:14:32;;;;;;;13.95;6.22;;;;;;;-1.32;64.76;98229.66;4988015;28;20551;-59
2022/02/02 20:16:57;;;;;;;13.85;7.32;;;;;;;-1.31;64.46;98231.25;4991404;28;20125;-60
2022/02/02 20:19:23;;;;;;;22.38;9.52;;;;;;;-1.38;64.63;98228.59;4989336;28;20043;-58
2022/02/02 20:21:53;;;;;;;15.02;7.95;;;;;;;-1.31;64.45;98235.63;4988057;28;20547;-58
2022/02/02 20:24:22;;;;;;;11.32;6.47;;;;;;;-1.37;63.78;98238.00;4990335;28;20427;-61
2022/02/02 20:26:49;;;;;;;14.27;8.00;;;;;;;-1.40;64.69;98237.56;4990057;28;20117;-59
2022/02/02 20:29:16;;;;;;;12.93;5.95;;;;;;;-1.44;64.57;98233.72;5006661;28;20057;-61
2022/02/02 20:31:42;;;;;;;12.43;6.68;;;;;;;-1.45;64.25;98232.94;4991853;28;20118;-59
2022/02/02 20:34:10;;;;;;;16.23;7.68;;;;;;;-1.56;64.49;98232.63;4990525;28;20072;-61
2022/02/02 20:36:39;;;;;;;16.20;7.03;;;;;;;-1.77;64.27;98229.06;4991434;28;20054;-62
2022/02/02 20:39:17;;;;;;;12.68;6.80;;;;;;;-1.65;64.93;98243.19;4992163;28;20451;-64
2022/02/02 20:41:45;;;;;;;12.68;6.88;;;;;;;-1.71;64.71;98245.72;4989748;28;20049;-63
2022/02/02 20:44:20;;;;;;;13.65;7.30;;;;;;;-1.75;64.72;98240.09;4991712;28;20097;-63
2022/02/02 21:00:42;;;;;;;15.40;6.57;;;;;;;-2.39;66.21;98211.47;4975228;28;20476;-62
2022/02/02 21:06:16;;;;;;;12.90;6.85;;;;;;;-2.26;65.66;98255.75;4982114;28;20031;-61
2022/02/02 21:09:00;;;;;;;15.00;6.70;;;;;;;-2.24;66.08;98255.56;4991683;28;20043;-58
2022/02/02 21:11:53;;;;;;;12.13;6.85;;;;;;;-2.32;66.36;98256.50;4990569;28;20472;-62
2022/02/02 21:14:21;;;;;;;19.80;7.57;;;;;;;-2.40;65.77;98260.00;4990865;28;20078;-61
2022/02/02 21:16:48;;;;;;;17.55;7.40;;;;;;;-2.43;65.61;98256.97;4991191;28;20042;-60
2022/02/02 21:19:25;;;;;;;13.88;6.70;;;;;;;-2.48;65.97;98267.88;4987693;28;20084;-61
2022/02/02 21:21:58;;;;;;;14.45;7.15;;;;;;;-2.54;66.85;98266.81;4971910;28;20044;-60
2022/02/02 21:29:24;;;;;;;13.18;6.90;;;;;;;-2.95;67.11;98265.66;4976147;28;20046;-60
2022/02/02 21:31:49;;;;;;;14.07;7.20;;;;;;;-3.06;67.36;98267.72;4975389;28;20054;-60
2022/02/02 21:34:18;;;;;;;14.23;7.60;;;;;;;-3.03;67.33;98274.31;4976148;28;20051;-63
2022/02/02 21:36:44;;;;;;;17.23;8.38;;;;;;;-3.07;67.51;98260.09;4994911;28;20094;-59
2022/02/02 21:39:19;;;;;;;17.17;7.80;;;;;;;-3.08;67.04;98267.09;4993462;28;20054;-59
2022/02/02 21:41:46;;;;;;;14.68;7.50;;;;;;;-3.23;67.64;98264.47;4993298;28;20411;-59
2022/02/02 21:44:13;;;;;;;15.60;7.43;;;;;;;-3.24;68.12;98272.41;5008997;28;20050;-59
2022/02/02 21:46:41;;;;;;;12.77;7.10;;;;;;;-3.32;68.51;98273.31;5009754;28;20039;-59
2022/02/02 21:49:09;;;;;;;13.57;7.55;;;;;;;-3.38;68.34;98270.59;5010129;28;20145;-57
2022/02/02 21:51:39;;;;;;;15.10;7.75;;;;;;;-3.45;68.36;98276.47;4980848;28;20041;-58
2022/02/02 21:54:06;;;;;;;20.48;7.57;;;;;;;-3.47;68.27;98275.88;5003234;28;20062;-59
2022/02/02 21:56:32;;;;;;;14.35;7.13;;;;;;;-3.60;68.39;98280.00;4975235;28;20409;-60
2022/02/02 21:58:58;;;;;;;14.43;7.70;;;;;;;-3.64;69.36;98276.97;4975609;28;20058;-58
2022/02/02 22:01:27;;;;;;;14.13;7.68;;;;;;;-3.67;69.51;98270.34;5007081;28;20388;-60
2022/02/02 22:03:53;;;;;;;13.55;7.22;;;;;;;-3.67;68.98;98278.13;4993173;28;20393;-59
2022/02/02 22:06:19;;;;;;;15.70;7.05;;;;;;;-3.61;69.10;98279.22;5009810;28;20042;-60
2022/02/02 22:08:45;;;;;;;17.65;7.47;;;;;;;-3.57;68.37;98277.06;4988394;28;20217;-59
2022/02/02 22:11:11;;;;;;;15.63;8.20;;;;;;;-3.57;68.15;98280.47;4974303;28;20039;-60
2022/02/02 22:13:41;;;;;;;15.02;7.88;;;;;;;-3.62;68.91;98281.97;4975461;28;20051;-60
2022/02/02 22:16:14;;;;;;;18.20;8.30;;;;;;;-3.64;68.69;98281.34;4974813;28;20050;-58
2022/02/02 22:18:41;;;;;;;15.07;7.28;;;;;;;-3.60;68.73;98283.41;4973712;28;20133;-58
2022/02/02 22:21:07;;;;;;;15.15;7.25;;;;;;;-3.61;68.40;98286.19;4974829;28;20049;-59
2022/02/02 22:23:38;;;;;;;12.88;7.50;;;;;;;-3.60;68.54;98287.78;4974298;28;20054;-58
2022/02/02 22:26:04;;;;;;;20.17;8.40;;;;;;;-3.67;69.26;98283.31;4974720;28;20058;-58
2022/02/02 22:28:29;;;;;;;12.52;7.05;;;;;;;-3.60;69.17;98285.19;4974742;28;20047;-58
2022/02/02 22:30:55;;;;;;;13.93;7.50;;;;;;;-3.51;68.29;98277.19;4974911;28;20457;-59
2022/02/02 22:33:21;;;;;;;17.02;7.95;;;;;;;-3.44;68.15;98280.69;4973260;28;20043;-59
2022/02/02 22:35:47;;;;;;;13.93;7.50;;;;;;;-3.37;68.48;98280.00;4974241;28;20397;-59
2022/02/02 22:38:12;;;;;;;17.65;7.78;;;;;;;-3.43;68.31;98279.69;4973472;28;20404;-60
2022/02/02 22:40:40;;;;;;;12.23;7.15;;;;;;;-3.48;68.39;98283.78;4974860;28;20043;-59
2022/02/02 22:43:06;;;;;;;16.85;8.27;;;;;;;-3.55;68.93;98283.69;4974749;28;20043;-58
2022/02/02 22:45:33;;;;;;;14.70;8.00;;;;;;;-3.51;68.17;98281.56;4989666;28;20042;-59
2022/02/02 22:47:59;;;;;;;13.02;7.75;;;;;;;-3.49;68.71;98284.78;4973316;28;20055;-59
2022/02/02 22:50:25;;;;;;;13.95;6.93;;;;;;;-3.47;68.50;98283.63;4989290;28;20496;-61
2022/02/02 22:52:55;;;;;;;17.15;8.05;;;;;;;-3.39;68.51;98289.72;4973871;28;20428;-58
2022/02/02 22:55:21;;;;;;;16.05;7.93;;;;;;;-3.45;68.69;98286.84;4983772;28;20081;-59
2022/02/02 22:57:49;;;;;;;15.00;7.30;;;;;;;-3.44;68.37;98287.66;4992326;28;20050;-59
2022/02/02 23:00:18;;;;;;;16.40;8.18;;;;;;;-3.43;68.86;98289.28;4993492;28;20038;-59
2022/02/02 23:02:59;;;;;;;14.52;7.30;;;;;;;-3.35;68.67;98293.56;4991831;28;20076;-58
2022/02/02 23:05:34;;;;;;;14.73;7.78;;;;;;;-3.28;68.42;98284.91;4993263;28;20035;-59
2022/02/02 23:08:01;;;;;;;15.25;7.32;;;;;;;-3.24;67.96;98290.56;4992076;28;20050;-59
2022/02/02 23:10:28;;;;;;;14.55;7.70;;;;;;;-3.34;68.88;98287.41;4991521;28;20161;-59
2022/02/02 23:12:53;;;;;;;18.05;8.43;;;;;;;-3.37;69.13;98293.75;4993418;28;20073;-58
2022/02/02 23:15:25;;;;;;;17.20;7.75;;;;;;;-3.47;68.75;98294.00;4993065;28;20049;-60